sensor_id;sensor_type;location;lat;lon;timestamp;pressure;altitude;pressure_sealevel;temperature;humidity
13765;BME280;6953;48.810;9.204;2023-07-31T00:00:43;98755.84;;;17.63;86.14
13765;BME280;6953;48.810;9.204;2023-07-31T00:03:09;98784.19;;;17.62;86.81
13765;BME280;6953;48.810;9.204;2023-07-31T00:05:35;98677.00;;;16.88;87.34
13765;BME280;6953;48.810;9.204;2023-07-31T00:08:00;98795.63;;;17.41;88.14
13765;BME280;6953;48.810;9.204;2023-07-31T00:10:26;98765.81;;;17.26;88.48
13765;BME280;6953;48.810;9.204;2023-07-31T00:12:51;98745.31;;;17.06;88.91
13765;BME280;6953;48.810;9.204;2023-07-31T00:15:16;98798.72;;;17.24;89.51
13765;BME280;6953;48.810;9.204;2023-07-31T00:17:41;98765.94;;;17.14;89.93
13765;BME280;6953;48.810;9.204;2023-07-31T00:20:07;98781.97;;;17.23;89.74
13765;BME280;6953;48.810;9.204;2023-07-31T00:22:32;98639.09;;;16.31;89.78
13765;BME280;6953;48.810;9.204;2023-07-31T00:24:58;98779.19;;;17.14;90.63
13765;BME280;6953;48.810;9.204;2023-07-31T00:27:24;98771.59;;;16.98;91.18
13765;BME280;6953;48.810;9.204;2023-07-31T00:29:50;98543.28;;;15.59;91.85
13765;BME280;6953;48.810;9.204;2023-07-31T00:32:15;98669.50;;;16.26;92.66
13765;BME280;6953;48.810;9.204;2023-07-31T00:34:40;98519.38;;;15.37;92.97
13765;BME280;6953;48.810;9.204;2023-07-31T00:37:06;98764.47;;;16.88;92.82
13765;BME280;6953;48.810;9.204;2023-07-31T00:39:33;98689.22;;;16.56;92.01
13765;BME280;6953;48.810;9.204;2023-07-31T00:41:59;98752.41;;;16.95;91.39
13765;BME280;6953;48.810;9.204;2023-07-31T00:44:24;98782.69;;;17.14;90.96
13765;BME280;6953;48.810;9.204;2023-07-31T00:46:49;98781.00;;;17.13;90.75
13765;BME280;6953;48.810;9.204;2023-07-31T00:49:15;98657.69;;;16.42;91.25
13765;BME280;6953;48.810;9.204;2023-07-31T00:51:41;98771.97;;;17.05;91.58
13765;BME280;6953;48.810;9.204;2023-07-31T00:54:06;98783.63;;;17.02;91.69
13765;BME280;6953;48.810;9.204;2023-07-31T00:56:32;98800.97;;;16.95;91.78
13765;BME280;6953;48.810;9.204;2023-07-31T00:58:57;98738.88;;;16.76;91.95
13765;BME280;6953;48.810;9.204;2023-07-31T01:01:23;98776.03;;;16.98;92.16
13765;BME280;6953;48.810;9.204;2023-07-31T01:03:49;98783.75;;;17.01;92.10
13765;BME280;6953;48.810;9.204;2023-07-31T01:09:19;98597.97;;;15.93;91.85
13765;BME280;6953;48.810;9.204;2023-07-31T01:11:53;98761.44;;;16.81;91.86
13765;BME280;6953;48.810;9.204;2023-07-31T01:14:18;98621.78;;;16.04;92.41
13765;BME280;6953;48.810;9.204;2023-07-31T01:16:44;98534.84;;;15.54;92.88
13765;BME280;6953;48.810;9.204;2023-07-31T01:19:10;98796.16;;;16.89;92.98
13765;BME280;6953;48.810;9.204;2023-07-31T01:24:23;98765.56;;;16.96;93.18
13765;BME280;6953;48.810;9.204;2023-07-31T01:26:57;98759.91;;;17.01;92.77
13765;BME280;6953;48.810;9.204;2023-07-31T01:29:29;98756.66;;;16.97;92.67
13765;BME280;6953;48.810;9.204;2023-07-31T01:32:01;98755.44;;;16.90;93.27
13765;BME280;6953;48.810;9.204;2023-07-31T01:34:28;98564.72;;;15.78;93.75
13765;BME280;6953;48.810;9.204;2023-07-31T01:36:54;98783.97;;;16.87;94.08
13765;BME280;6953;48.810;9.204;2023-07-31T01:39:20;98715.91;;;16.76;93.65
13765;BME280;6953;48.810;9.204;2023-07-31T01:41:46;98741.22;;;17.02;93.39
13765;BME280;6953;48.810;9.204;2023-07-31T01:44:11;98754.13;;;17.07;93.09
13765;BME280;6953;48.810;9.204;2023-07-31T01:46:36;98535.63;;;15.89;92.36
13765;BME280;6953;48.810;9.204;2023-07-31T01:49:02;98573.81;;;16.08;92.38
13765;BME280;6953;48.810;9.204;2023-07-31T01:51:27;98709.41;;;16.91;92.63
13765;BME280;6953;48.810;9.204;2023-07-31T01:53:52;98503.97;;;15.76;92.48
13765;BME280;6953;48.810;9.204;2023-07-31T01:56:18;98508.44;;;15.76;92.25
13765;BME280;6953;48.810;9.204;2023-07-31T01:58:43;98731.00;;;17.09;92.05
13765;BME280;6953;48.810;9.204;2023-07-31T02:01:08;98560.72;;;16.18;92.13
13765;BME280;6953;48.810;9.204;2023-07-31T02:03:33;98729.19;;;17.20;92.06
13765;BME280;6953;48.810;9.204;2023-07-31T02:06:00;98758.47;;;17.19;92.29
13765;BME280;6953;48.810;9.204;2023-07-31T02:08:25;98673.13;;;16.81;92.39
13765;BME280;6953;48.810;9.204;2023-07-31T02:10:51;98707.00;;;16.88;92.38
13765;BME280;6953;48.810;9.204;2023-07-31T02:13:17;98472.22;;;15.65;92.21
13765;BME280;6953;48.810;9.204;2023-07-31T02:15:42;98717.75;;;17.09;92.71
13765;BME280;6953;48.810;9.204;2023-07-31T02:18:09;98718.69;;;17.08;92.92
13765;BME280;6953;48.810;9.204;2023-07-31T02:20:34;98710.38;;;17.12;92.78
13765;BME280;6953;48.810;9.204;2023-07-31T02:23:00;98697.84;;;17.14;92.44
13765;BME280;6953;48.810;9.204;2023-07-31T02:25:25;98734.22;;;17.23;91.87
13765;BME280;6953;48.810;9.204;2023-07-31T02:27:51;98734.38;;;17.33;91.08
13765;BME280;6953;48.810;9.204;2023-07-31T02:30:16;98628.34;;;16.89;91.34
13765;BME280;6953;48.810;9.204;2023-07-31T02:32:41;98465.88;;;15.90;91.40
13765;BME280;6953;48.810;9.204;2023-07-31T02:35:07;98418.72;;;15.62;91.11
13765;BME280;6953;48.810;9.204;2023-07-31T02:37:33;98705.91;;;17.24;92.12
13765;BME280;6953;48.810;9.204;2023-07-31T02:40:00;98544.13;;;16.16;93.07
13765;BME280;6953;48.810;9.204;2023-07-31T02:42:26;98655.78;;;16.77;93.30
13765;BME280;6953;48.810;9.204;2023-07-31T02:44:51;98677.09;;;17.08;92.60
13765;BME280;6953;48.810;9.204;2023-07-31T02:47:21;98686.88;;;17.19;92.01
13765;BME280;6953;48.810;9.204;2023-07-31T02:49:46;98450.13;;;15.77;91.91
13765;BME280;6953;48.810;9.204;2023-07-31T02:52:12;98507.16;;;16.14;91.68
13765;BME280;6953;48.810;9.204;2023-07-31T02:54:37;98685.66;;;17.23;91.63
13765;BME280;6953;48.810;9.204;2023-07-31T02:57:03;98708.84;;;17.32;91.02
13765;BME280;6953;48.810;9.204;2023-07-31T02:59:28;98681.00;;;17.37;90.52
13765;BME280;6953;48.810;9.204;2023-07-31T03:01:54;98485.88;;;16.27;90.04
13765;BME280;6953;48.810;9.204;2023-07-31T03:04:19;98599.19;;;16.89;90.82
13765;BME280;6953;48.810;9.204;2023-07-31T03:06:44;98680.63;;;17.31;90.79
13765;BME280;6953;48.810;9.204;2023-07-31T03:09:10;98678.66;;;17.22;90.88
13765;BME280;6953;48.810;9.204;2023-07-31T03:11:35;98679.38;;;17.13;91.32
13765;BME280;6953;48.810;9.204;2023-07-31T03:14:00;98448.28;;;15.67;91.68
13765;BME280;6953;48.810;9.204;2023-07-31T03:16:26;98677.22;;;16.96;92.48
13765;BME280;6953;48.810;9.204;2023-07-31T03:18:51;98452.50;;;15.59;92.87
13765;BME280;6953;48.810;9.204;2023-07-31T03:21:16;98681.56;;;16.97;92.97
13765;BME280;6953;48.810;9.204;2023-07-31T03:23:41;98677.84;;;16.99;92.45
13765;BME280;6953;48.810;9.204;2023-07-31T03:26:08;98678.31;;;17.04;92.31
13765;BME280;6953;48.810;9.204;2023-07-31T03:28:34;98440.25;;;15.68;91.96
13765;BME280;6953;48.810;9.204;2023-07-31T03:30:59;98602.91;;;16.65;92.04
13765;BME280;6953;48.810;9.204;2023-07-31T03:33:25;98575.09;;;16.48;92.49
13765;BME280;6953;48.810;9.204;2023-07-31T03:35:51;98592.41;;;16.52;92.71
13765;BME280;6953;48.810;9.204;2023-07-31T03:38:16;98707.13;;;16.98;93.20
13765;BME280;6953;48.810;9.204;2023-07-31T03:40:41;98695.56;;;16.99;92.77
13765;BME280;6953;48.810;9.204;2023-07-31T03:43:07;98686.16;;;16.95;92.66
13765;BME280;6953;48.810;9.204;2023-07-31T03:45:32;98691.81;;;16.90;92.94
13765;BME280;6953;48.810;9.204;2023-07-31T03:47:57;98696.28;;;16.90;93.25
13765;BME280;6953;48.810;9.204;2023-07-31T03:50:23;98483.91;;;15.74;92.94
13765;BME280;6953;48.810;9.204;2023-07-31T03:52:50;98687.34;;;17.02;92.22
13765;BME280;6953;48.810;9.204;2023-07-31T03:55:15;98662.78;;;16.89;91.87
13765;BME280;6953;48.810;9.204;2023-07-31T03:57:40;98690.38;;;16.97;92.03
13765;BME280;6953;48.810;9.204;2023-07-31T04:00:06;98697.84;;;16.92;92.95
13765;BME280;6953;48.810;9.204;2023-07-31T04:02:32;98683.88;;;16.90;93.82
13765;BME280;6953;48.810;9.204;2023-07-31T04:04:57;98688.78;;;16.95;94.09
13765;BME280;6953;48.810;9.204;2023-07-31T04:07:22;98452.63;;;15.68;93.02
13765;BME280;6953;48.810;9.204;2023-07-31T04:09:47;98610.25;;;16.83;92.39
13765;BME280;6953;48.810;9.204;2023-07-31T04:12:13;98689.88;;;17.47;90.92
13765;BME280;6953;48.810;9.204;2023-07-31T04:14:38;98682.38;;;17.63;89.66
13765;BME280;6953;48.810;9.204;2023-07-31T04:17:03;98681.13;;;17.78;88.99
13765;BME280;6953;48.810;9.204;2023-07-31T04:19:29;98677.34;;;17.91;88.15
13765;BME280;6953;48.810;9.204;2023-07-31T04:21:54;98659.91;;;17.98;87.29
13765;BME280;6953;48.810;9.204;2023-07-31T04:24:19;98674.72;;;18.12;87.09
13765;BME280;6953;48.810;9.204;2023-07-31T04:26:50;98658.06;;;18.10;86.91
13765;BME280;6953;48.810;9.204;2023-07-31T04:29:15;98489.34;;;17.13;85.96
13765;BME280;6953;48.810;9.204;2023-07-31T04:31:41;98658.75;;;18.23;85.60
13765;BME280;6953;48.810;9.204;2023-07-31T04:34:06;98618.06;;;18.02;85.93
13765;BME280;6953;48.810;9.204;2023-07-31T04:36:33;98665.03;;;18.42;85.58
13765;BME280;6953;48.810;9.204;2023-07-31T04:38:58;98658.09;;;18.51;84.73
13765;BME280;6953;48.810;9.204;2023-07-31T04:41:23;98650.84;;;18.53;84.33
13765;BME280;6953;48.810;9.204;2023-07-31T04:43:49;98592.94;;;18.26;83.88
13765;BME280;6953;48.810;9.204;2023-07-31T04:46:14;98448.34;;;17.49;83.44
13765;BME280;6953;48.810;9.204;2023-07-31T04:48:40;98669.97;;;18.97;82.46
13765;BME280;6953;48.810;9.204;2023-07-31T04:51:05;98678.22;;;19.14;81.53
13765;BME280;6953;48.810;9.204;2023-07-31T04:53:30;98668.34;;;19.35;80.73
13765;BME280;6953;48.810;9.204;2023-07-31T04:55:56;98383.38;;;17.93;79.21
13765;BME280;6953;48.810;9.204;2023-07-31T04:58:21;98500.06;;;18.84;78.18
13765;BME280;6953;48.810;9.204;2023-07-31T05:00:46;98604.66;;;19.62;76.81
13765;BME280;6953;48.810;9.204;2023-07-31T05:03:12;98647.00;;;19.93;76.09
13765;BME280;6953;48.810;9.204;2023-07-31T05:05:37;98665.81;;;20.01;76.17
13765;BME280;6953;48.810;9.204;2023-07-31T05:08:02;98688.06;;;19.91;75.47
13765;BME280;6953;48.810;9.204;2023-07-31T05:10:28;98662.00;;;19.94;75.37
13765;BME280;6953;48.810;9.204;2023-07-31T05:12:53;98617.41;;;19.68;75.26
13765;BME280;6953;48.810;9.204;2023-07-31T05:15:18;98495.03;;;19.00;75.46
13765;BME280;6953;48.810;9.204;2023-07-31T05:17:44;98665.66;;;19.93;75.32
13765;BME280;6953;48.810;9.204;2023-07-31T05:20:09;98669.13;;;19.85;75.63
13765;BME280;6953;48.810;9.204;2023-07-31T05:22:34;98492.38;;;18.91;75.63
13765;BME280;6953;48.810;9.204;2023-07-31T05:25:00;98645.44;;;19.82;75.90
13765;BME280;6953;48.810;9.204;2023-07-31T05:27:25;98502.28;;;18.89;75.84
13765;BME280;6953;48.810;9.204;2023-07-31T05:29:50;98662.72;;;19.87;75.98
13765;BME280;6953;48.810;9.204;2023-07-31T05:32:16;98450.78;;;18.71;75.73
13765;BME280;6953;48.810;9.204;2023-07-31T05:34:41;98659.66;;;20.20;75.25
13765;BME280;6953;48.810;9.204;2023-07-31T05:37:07;98682.06;;;20.55;73.81
13765;BME280;6953;48.810;9.204;2023-07-31T05:39:32;98626.72;;;20.76;71.49
13765;BME280;6953;48.810;9.204;2023-07-31T05:41:57;98653.59;;;21.38;69.52
13765;BME280;6953;48.810;9.204;2023-07-31T05:44:23;98601.63;;;21.32;68.16
13765;BME280;6953;48.810;9.204;2023-07-31T05:46:48;98651.00;;;21.73;67.53
13765;BME280;6953;48.810;9.204;2023-07-31T05:49:13;98648.56;;;21.79;67.38
13765;BME280;6953;48.810;9.204;2023-07-31T05:51:39;98676.78;;;21.91;67.16
13765;BME280;6953;48.810;9.204;2023-07-31T05:54:04;98483.94;;;21.08;66.24
13765;BME280;6953;48.810;9.204;2023-07-31T05:56:29;98641.19;;;22.08;66.43
13765;BME280;6953;48.810;9.204;2023-07-31T05:58:55;98618.72;;;22.01;65.73
13765;BME280;6953;48.810;9.204;2023-07-31T06:01:20;98585.94;;;21.91;65.35
13765;BME280;6953;48.810;9.204;2023-07-31T06:03:46;98662.84;;;22.22;64.77
13765;BME280;6953;48.810;9.204;2023-07-31T06:06:11;98640.09;;;22.36;64.57
13765;BME280;6953;48.810;9.204;2023-07-31T06:08:38;98459.84;;;21.35;64.40
13765;BME280;6953;48.810;9.204;2023-07-31T06:11:05;98648.88;;;22.46;64.16
13765;BME280;6953;48.810;9.204;2023-07-31T06:13:30;98626.66;;;22.28;63.96
13765;BME280;6953;48.810;9.204;2023-07-31T06:15:56;98646.81;;;22.83;62.97
13765;BME280;6953;48.810;9.204;2023-07-31T06:18:21;98674.69;;;24.22;58.31
13765;BME280;6953;48.810;9.204;2023-07-31T06:20:46;98658.88;;;25.60;53.20
13765;BME280;6953;48.810;9.204;2023-07-31T06:23:12;98584.06;;;26.39;48.86
13765;BME280;6953;48.810;9.204;2023-07-31T06:25:38;98634.09;;;26.70;45.87
13765;BME280;6953;48.810;9.204;2023-07-31T06:28:03;98580.94;;;26.50;45.65
13765;BME280;6953;48.810;9.204;2023-07-31T06:30:28;98643.44;;;27.26;43.81
13765;BME280;6953;48.810;9.204;2023-07-31T06:32:54;98428.03;;;26.02;43.66
13765;BME280;6953;48.810;9.204;2023-07-31T06:35:20;98662.03;;;27.49;42.74
13765;BME280;6953;48.810;9.204;2023-07-31T06:37:45;98643.16;;;27.78;41.87
13765;BME280;6953;48.810;9.204;2023-07-31T06:40:11;98666.31;;;28.08;41.65
13765;BME280;6953;48.810;9.204;2023-07-31T06:42:36;98533.63;;;26.84;41.68
13765;BME280;6953;48.810;9.204;2023-07-31T06:45:02;98651.50;;;26.97;43.15
13765;BME280;6953;48.810;9.204;2023-07-31T06:47:27;98646.94;;;26.46;45.01
13765;BME280;6953;48.810;9.204;2023-07-31T06:49:53;98654.72;;;26.92;44.21
13765;BME280;6953;48.810;9.204;2023-07-31T06:52:18;98651.66;;;27.96;40.58
13765;BME280;6953;48.810;9.204;2023-07-31T06:54:44;98673.69;;;28.77;38.33
13765;BME280;6953;48.810;9.204;2023-07-31T06:57:09;98661.13;;;29.18;37.46
13765;BME280;6953;48.810;9.204;2023-07-31T06:59:34;98668.44;;;29.51;36.16
13765;BME280;6953;48.810;9.204;2023-07-31T07:02:00;98523.81;;;28.73;35.89
13765;BME280;6953;48.810;9.204;2023-07-31T07:04:25;98654.53;;;29.27;36.39
13765;BME280;6953;48.810;9.204;2023-07-31T07:06:51;98654.31;;;29.22;36.34
13765;BME280;6953;48.810;9.204;2023-07-31T07:09:17;98544.00;;;28.01;37.55
13765;BME280;6953;48.810;9.204;2023-07-31T07:11:43;98597.75;;;28.24;38.14
13765;BME280;6953;48.810;9.204;2023-07-31T07:14:08;98653.47;;;28.46;38.90
13765;BME280;6953;48.810;9.204;2023-07-31T07:16:33;98648.13;;;28.79;38.52
13765;BME280;6953;48.810;9.204;2023-07-31T07:18:59;98468.53;;;27.87;38.21
13765;BME280;6953;48.810;9.204;2023-07-31T07:21:24;98485.97;;;28.12;37.17
13765;BME280;6953;48.810;9.204;2023-07-31T07:23:49;98465.69;;;27.95;36.81
13765;BME280;6953;48.810;9.204;2023-07-31T07:26:15;98638.44;;;28.64;36.63
13765;BME280;6953;48.810;9.204;2023-07-31T07:28:41;98642.00;;;28.64;37.47
13765;BME280;6953;48.810;9.204;2023-07-31T07:31:07;98593.09;;;28.32;38.66
13765;BME280;6953;48.810;9.204;2023-07-31T07:33:32;98630.34;;;28.64;37.46
13765;BME280;6953;48.810;9.204;2023-07-31T07:36:01;98460.78;;;27.77;37.25
13765;BME280;6953;48.810;9.204;2023-07-31T07:38:27;98641.47;;;28.34;36.72
13765;BME280;6953;48.810;9.204;2023-07-31T07:40:53;98640.31;;;28.22;37.50
13765;BME280;6953;48.810;9.204;2023-07-31T07:43:18;98635.44;;;28.11;38.31
13765;BME280;6953;48.810;9.204;2023-07-31T07:45:44;98599.22;;;27.84;38.90
13765;BME280;6953;48.810;9.204;2023-07-31T07:48:09;98629.50;;;28.63;37.79
13765;BME280;6953;48.810;9.204;2023-07-31T07:50:38;98623.66;;;29.89;34.36
13765;BME280;6953;48.810;9.204;2023-07-31T07:53:03;98646.09;;;31.33;31.48
13765;BME280;6953;48.810;9.204;2023-07-31T07:55:28;98650.44;;;32.41;30.49
13765;BME280;6953;48.810;9.204;2023-07-31T07:57:54;98597.41;;;31.51;29.82
13765;BME280;6953;48.810;9.204;2023-07-31T08:00:19;98634.00;;;31.29;30.91
13765;BME280;6953;48.810;9.204;2023-07-31T08:02:44;98643.53;;;31.51;30.07
13765;BME280;6953;48.810;9.204;2023-07-31T08:05:10;98632.03;;;32.06;30.30
13765;BME280;6953;48.810;9.204;2023-07-31T08:07:35;98641.03;;;33.41;28.49
13765;BME280;6953;48.810;9.204;2023-07-31T08:10:00;98613.81;;;33.59;27.70
13765;BME280;6953;48.810;9.204;2023-07-31T08:12:26;98507.81;;;32.26;28.51
13765;BME280;6953;48.810;9.204;2023-07-31T08:14:51;98639.78;;;32.95;27.88
13765;BME280;6953;48.810;9.204;2023-07-31T08:17:17;98632.63;;;33.25;27.75
13765;BME280;6953;48.810;9.204;2023-07-31T08:19:42;98621.38;;;34.22;27.45
13765;BME280;6953;48.810;9.204;2023-07-31T08:22:09;98622.19;;;34.52;25.82
13765;BME280;6953;48.810;9.204;2023-07-31T08:24:34;98503.97;;;33.95;25.97
13765;BME280;6953;48.810;9.204;2023-07-31T08:26:59;98638.03;;;34.73;25.60
13765;BME280;6953;48.810;9.204;2023-07-31T08:29:25;98574.31;;;34.15;25.50
13765;BME280;6953;48.810;9.204;2023-07-31T08:31:50;98618.28;;;33.72;26.58
13765;BME280;6953;48.810;9.204;2023-07-31T08:34:16;98617.63;;;33.16;27.50
13765;BME280;6953;48.810;9.204;2023-07-31T08:36:41;98602.81;;;34.31;26.31
13765;BME280;6953;48.810;9.204;2023-07-31T08:39:06;98639.84;;;35.99;23.88
13765;BME280;6953;48.810;9.204;2023-07-31T08:41:37;98493.53;;;35.24;23.57
13765;BME280;6953;48.810;9.204;2023-07-31T08:44:03;98632.13;;;36.35;23.09
13765;BME280;6953;48.810;9.204;2023-07-31T08:46:29;98612.47;;;34.15;26.05
13765;BME280;6953;48.810;9.204;2023-07-31T08:48:55;98599.28;;;33.65;26.51
13765;BME280;6953;48.810;9.204;2023-07-31T08:51:21;98549.16;;;33.37;26.68
13765;BME280;6953;48.810;9.204;2023-07-31T08:53:46;98588.94;;;33.20;27.23
13765;BME280;6953;48.810;9.204;2023-07-31T08:56:13;98441.34;;;33.83;25.08
13765;BME280;6953;48.810;9.204;2023-07-31T08:58:39;98593.53;;;33.55;26.71
13765;BME280;6953;48.810;9.204;2023-07-31T09:01:07;98534.88;;;32.08;28.32
13765;BME280;6953;48.810;9.204;2023-07-31T09:03:34;98533.84;;;31.72;29.07
13765;BME280;6953;48.810;9.204;2023-07-31T09:06:02;98438.47;;;31.31;29.16
13765;BME280;6953;48.810;9.204;2023-07-31T09:08:30;98415.94;;;32.41;27.50
13765;BME280;6953;48.810;9.204;2023-07-31T09:11:02;98494.38;;;32.80;26.70
13765;BME280;6953;48.810;9.204;2023-07-31T09:13:30;98455.38;;;32.86;26.07
13765;BME280;6953;48.810;9.204;2023-07-31T09:15:55;98406.88;;;32.47;26.75
13765;BME280;6953;48.810;9.204;2023-07-31T09:18:21;98588.34;;;32.94;27.95
13765;BME280;6953;48.810;9.204;2023-07-31T09:21:03;98521.44;;;32.44;28.10
13765;BME280;6953;48.810;9.204;2023-07-31T09:23:43;98579.19;;;32.64;27.84
13765;BME280;6953;48.810;9.204;2023-07-31T09:26:09;98543.13;;;33.35;27.18
13765;BME280;6953;48.810;9.204;2023-07-31T09:28:34;98579.31;;;33.71;27.16
13765;BME280;6953;48.810;9.204;2023-07-31T09:30:59;98590.66;;;34.45;26.32
13765;BME280;6953;48.810;9.204;2023-07-31T09:33:25;98422.94;;;33.79;25.50
13765;BME280;6953;48.810;9.204;2023-07-31T09:35:50;98592.63;;;34.90;25.69
13765;BME280;6953;48.810;9.204;2023-07-31T09:38:16;98589.16;;;34.02;27.09
13765;BME280;6953;48.810;9.204;2023-07-31T09:40:43;98579.78;;;32.41;28.68
13765;BME280;6953;48.810;9.204;2023-07-31T09:43:12;98584.56;;;31.21;30.79
13765;BME280;6953;48.810;9.204;2023-07-31T09:45:42;98366.06;;;29.21;32.10
13765;BME280;6953;48.810;9.204;2023-07-31T09:48:12;98543.47;;;29.81;33.57
13765;BME280;6953;48.810;9.204;2023-07-31T09:50:39;98491.59;;;29.05;34.30
13765;BME280;6953;48.810;9.204;2023-07-31T09:53:06;98516.06;;;28.91;35.80
13765;BME280;6953;48.810;9.204;2023-07-31T09:55:32;98325.16;;;28.24;34.74
13765;BME280;6953;48.810;9.204;2023-07-31T09:57:57;98353.25;;;31.45;30.47
13765;BME280;6953;48.810;9.204;2023-07-31T10:00:24;98531.63;;;35.98;25.27
13765;BME280;6953;48.810;9.204;2023-07-31T10:02:53;98548.72;;;36.98;23.55
13765;BME280;6953;48.810;9.204;2023-07-31T10:05:19;98525.22;;;34.91;25.27
13765;BME280;6953;48.810;9.204;2023-07-31T10:07:53;98537.31;;;33.31;27.17
13765;BME280;6953;48.810;9.204;2023-07-31T10:10:20;98472.00;;;33.61;26.78
13765;BME280;6953;48.810;9.204;2023-07-31T10:12:48;98513.97;;;34.76;25.81
13765;BME280;6953;48.810;9.204;2023-07-31T10:15:14;98431.72;;;35.18;24.51
13765;BME280;6953;48.810;9.204;2023-07-31T10:17:40;98375.88;;;36.14;22.37
13765;BME280;6953;48.810;9.204;2023-07-31T10:20:06;98518.47;;;35.67;23.64
13765;BME280;6953;48.810;9.204;2023-07-31T10:22:32;98388.88;;;33.47;25.89
13765;BME280;6953;48.810;9.204;2023-07-31T10:24:59;98349.13;;;33.46;25.64
13765;BME280;6953;48.810;9.204;2023-07-31T10:27:25;98504.19;;;34.22;26.16
13765;BME280;6953;48.810;9.204;2023-07-31T10:29:52;98514.34;;;35.53;24.63
13765;BME280;6953;48.810;9.204;2023-07-31T10:32:20;98346.69;;;33.79;24.91
13765;BME280;6953;48.810;9.204;2023-07-31T10:34:47;98438.59;;;33.72;26.48
13765;BME280;6953;48.810;9.204;2023-07-31T10:37:27;98497.13;;;34.04;26.20
13765;BME280;6953;48.810;9.204;2023-07-31T10:39:58;98468.91;;;34.27;26.21
13765;BME280;6953;48.810;9.204;2023-07-31T10:42:28;98387.78;;;34.80;25.41
13765;BME280;6953;48.810;9.204;2023-07-31T10:44:59;98464.53;;;36.89;23.18
13765;BME280;6953;48.810;9.204;2023-07-31T10:47:25;98529.41;;;38.17;20.87
13765;BME280;6953;48.810;9.204;2023-07-31T10:49:50;98499.47;;;38.15;21.66
13765;BME280;6953;48.810;9.204;2023-07-31T10:52:20;98356.56;;;35.71;23.38
13765;BME280;6953;48.810;9.204;2023-07-31T10:55:15;98500.03;;;36.18;23.69
13765;BME280;6953;48.810;9.204;2023-07-31T10:57:44;98504.41;;;37.87;21.07
13765;BME280;6953;48.810;9.204;2023-07-31T11:00:28;98516.63;;;40.42;18.43
13765;BME280;6953;48.810;9.204;2023-07-31T11:03:00;98517.09;;;42.69;16.87
13765;BME280;6953;48.810;9.204;2023-07-31T11:05:49;98526.75;;;41.90;16.65
13765;BME280;6953;48.810;9.204;2023-07-31T11:10:42;98509.81;;;43.58;16.24
13765;BME280;6953;48.810;9.204;2023-07-31T11:13:07;98507.63;;;42.75;16.23
13765;BME280;6953;48.810;9.204;2023-07-31T11:15:33;98488.94;;;42.38;16.54
13765;BME280;6953;48.810;9.204;2023-07-31T11:18:00;98513.44;;;43.53;16.29
13765;BME280;6953;48.810;9.204;2023-07-31T11:20:35;98376.31;;;42.35;16.34
13765;BME280;6953;48.810;9.204;2023-07-31T11:23:07;98522.09;;;41.85;17.41
13765;BME280;6953;48.810;9.204;2023-07-31T11:25:33;98462.75;;;38.84;19.75
13765;BME280;6953;48.810;9.204;2023-07-31T11:28:25;98479.06;;;37.11;21.57
13765;BME280;6953;48.810;9.204;2023-07-31T11:30:50;98466.97;;;36.20;23.71
13765;BME280;6953;48.810;9.204;2023-07-31T11:33:15;98315.19;;;34.40;24.17
13765;BME280;6953;48.810;9.204;2023-07-31T11:35:48;98396.94;;;33.94;25.02
13765;BME280;6953;48.810;9.204;2023-07-31T11:38:27;98285.59;;;31.74;27.39
13765;BME280;6953;48.810;9.204;2023-07-31T11:41:03;98448.28;;;31.69;28.46
13765;BME280;6953;48.810;9.204;2023-07-31T11:43:30;98462.06;;;30.74;30.71
13765;BME280;6953;48.810;9.204;2023-07-31T11:45:57;98426.09;;;30.08;32.94
13765;BME280;6953;48.810;9.204;2023-07-31T11:48:28;98418.41;;;30.05;33.07
13765;BME280;6953;48.810;9.204;2023-07-31T11:50:57;98441.03;;;30.50;32.02
13765;BME280;6953;48.810;9.204;2023-07-31T11:53:44;98253.50;;;29.97;31.94
13765;BME280;6953;48.810;9.204;2023-07-31T11:56:13;98304.97;;;30.48;31.00
13765;BME280;6953;48.810;9.204;2023-07-31T11:58:40;98443.31;;;31.22;31.27
13765;BME280;6953;48.810;9.204;2023-07-31T12:01:06;98418.97;;;31.09;31.34
13765;BME280;6953;48.810;9.204;2023-07-31T12:03:32;98413.63;;;31.34;31.18
13765;BME280;6953;48.810;9.204;2023-07-31T12:05:59;98266.22;;;30.54;30.87
13765;BME280;6953;48.810;9.204;2023-07-31T12:08:25;98225.00;;;30.45;30.75
13765;BME280;6953;48.810;9.204;2023-07-31T12:10:51;98259.63;;;31.11;30.29
13765;BME280;6953;48.810;9.204;2023-07-31T12:13:22;98413.53;;;32.02;29.92
13765;BME280;6953;48.810;9.204;2023-07-31T12:15:48;98396.72;;;31.32;32.24
13765;BME280;6953;48.810;9.204;2023-07-31T12:18:15;98254.50;;;30.09;32.41
13765;BME280;6953;48.810;9.204;2023-07-31T12:20:49;98333.22;;;30.14;33.30
13765;BME280;6953;48.810;9.204;2023-07-31T12:23:22;98422.16;;;30.11;34.35
13765;BME280;6953;48.810;9.204;2023-07-31T12:26:00;98385.31;;;30.03;33.83
13765;BME280;6953;48.810;9.204;2023-07-31T12:28:26;98392.56;;;30.09;33.12
13765;BME280;6953;48.810;9.204;2023-07-31T12:30:51;98387.16;;;30.16;33.59
13765;BME280;6953;48.810;9.204;2023-07-31T12:33:21;98310.78;;;29.81;34.06
13765;BME280;6953;48.810;9.204;2023-07-31T12:35:47;98398.16;;;30.21;34.38
13765;BME280;6953;48.810;9.204;2023-07-31T12:38:13;98384.44;;;29.83;34.76
13765;BME280;6953;48.810;9.204;2023-07-31T12:40:40;98259.09;;;28.79;35.71
13765;BME280;6953;48.810;9.204;2023-07-31T12:43:06;98204.34;;;28.26;35.80
13765;BME280;6953;48.810;9.204;2023-07-31T12:45:33;98193.28;;;27.67;36.71
13765;BME280;6953;48.810;9.204;2023-07-31T12:47:59;98349.28;;;28.72;37.37
13765;BME280;6953;48.810;9.204;2023-07-31T12:50:25;98313.28;;;28.18;37.66
13765;BME280;6953;48.810;9.204;2023-07-31T12:52:51;98288.03;;;27.92;37.70
13765;BME280;6953;48.810;9.204;2023-07-31T12:55:16;98157.06;;;27.15;38.24
13765;BME280;6953;48.810;9.204;2023-07-31T12:57:43;98286.97;;;27.93;37.33
13765;BME280;6953;48.810;9.204;2023-07-31T13:00:08;98336.41;;;28.27;37.54
13765;BME280;6953;48.810;9.204;2023-07-31T13:02:34;98169.31;;;27.18;37.56
13765;BME280;6953;48.810;9.204;2023-07-31T13:04:59;98344.75;;;28.32;37.91
13765;BME280;6953;48.810;9.204;2023-07-31T13:07:24;98332.97;;;28.46;38.42
13765;BME280;6953;48.810;9.204;2023-07-31T13:09:50;98338.34;;;28.86;37.72
13765;BME280;6953;48.810;9.204;2023-07-31T13:12:16;98336.69;;;28.98;36.42
13765;BME280;6953;48.810;9.204;2023-07-31T13:14:41;98336.06;;;28.96;36.67